Shoal Creek, Alabama
Current Conditions -  °F | °C
As of 2:53 PM on Tuesday 25 Nov 2014 (Local Time) from KBHM Reporting Station
Broken Clouds Broken Clouds  
Wind Chill: 58°   Ceiling: 15000
Heat Index: 58°   Visibility: 10mi
Dew Point: 28°   Wind: 12mph
Humidity: 32%   Direction: 320°NW
Pressure: 30.07"   Gusts: NA
Location:  33.3752°N, 86.7086°W
Report Text: KBHM 252053Z 32010KT 10SM BKN150 14/M02 A3007 RMK AO2 SLP180 T01441022 56019
Loading
Personal Weather Stations






























Interactive Weather Map New forecast layout! Learn more

10-Day Weather Forecast

Advertisements
Track Severe Weather on mobile